EMX weather

El Maiten Airport
El Maiten, Chubut Province, Argentina

Public forecast

Using degrees Celsius for public forecast. Weather courtesy of forecast.io.

METAR (pilot weather report)

Closest report is San Carlos De Bariloche Airport, 52.7 nm (97.6 km) N. Retrieved 2019/04/21 18:00 UTC (5 minutes ago):

SAZS 211800Z 29005KT CAVOK 17/01 Q1017

TAF (pilot weather forecast)

Closest forecast is San Carlos De Bariloche Airport, 52.7 nm (97.6 km) N. Retrieved 2019/04/21 18:00 UTC (5 minutes ago):

TAF SAZS 211700Z 2118/2218 VRB05KT CAVOK TX18/2119Z TN03/2211Z BECMG 2203/2206 11005KT BECMG 2214/2217 29010KT